Create Tblcommutelog Verified Points Advance Search
| # | Trip ID | Id Commuter | Trip Date | Trip Num | Current Lat | Current Lng | Delta Distance | Current Time | Activity | Activity Confidence | Current Speed | |
|---|---|---|---|---|---|---|---|---|---|---|---|---|
| 69821 | 251224_787177_16655624_1336 | 787177 | (not set) | (not set) | 39.28791362601 | -76.606160282683 | 3.5536 | 2025-12-24 13:55:30 | unknown | 100 | 5.2214185449766 | |
| 69822 | 251224_789313_16515912_0744 | 789313 | (not set) | (not set) | 38.7699797 | -77.504033 | 6.6149 | 2025-12-24 08:06:44 | in_vehicle | 100 | 6.7994671292033 | |
| 69823 | 251224_785674_6441454_0726 | 785674 | (not set) | (not set) | 39.002142865743 | -77.104750783949 | 31.1924 | 2025-12-24 08:13:51 | on_foot | 100 | -0.44703925898772 | |
| 69824 | 251224_789341_6461772_0810 | 789341 | (not set) | (not set) | 38.9849122 | -77.0963693 | 0.0442 | 2025-12-24 08:11:55 | walking | 100 | 0.6482069255322 | |
| 69825 | 251224_785147_16514010_0742 | 785147 | (not set) | (not set) | 39.129542466667 | -77.768607633333 | 26.6612 | 2025-12-24 08:16:33 | in_vehicle | 100 | 11.935948214972 | |
| 69826 | 251224_777375_16513753_0659 | 777375 | (not set) | (not set) | 39.305540150667 | -76.616116199058 | 32.6821 | 2025-12-24 08:19:29 | unknown | 100 | 0.41127611826871 | |
| 69827 | 251224_781550_16430248_0814 | 781550 | (not set) | (not set) | 38.963304930403 | -77.008875198734 | 0.9427 | 2025-12-24 08:21:31 | on_foot | 100 | 14.689710050337 | |
| 69828 | 251224_781550_16430248_0814 | 781550 | (not set) | (not set) | 38.94818715943 | -77.000730292406 | 2.087 | 2025-12-24 08:23:31 | in_vehicle | 100 | 10.5545969047 | |
| 69829 | 251224_785147_16514010_0742 | 785147 | (not set) | (not set) | 39.1404448 | -77.617631966667 | 35.3645 | 2025-12-24 08:25:21 | in_vehicle | 100 | 12.096882348208 | |
| 69830 | 251224_785147_16514010_0742 | 785147 | (not set) | (not set) | 39.13673555 | -77.5965151 | 36.5464 | 2025-12-24 08:26:32 | in_vehicle | 100 | 11.913596252023 | |
| 69831 | 251224_781550_16430248_0814 | 781550 | (not set) | (not set) | 38.907967048015 | -77.002917726105 | 5.0166 | 2025-12-24 08:28:36 | in_vehicle | 100 | 6.6608849589171 | |
| 69832 | 251224_785147_16514010_0742 | 785147 | (not set) | (not set) | 39.1003881 | -77.566621033333 | 40.1212 | 2025-12-24 08:30:08 | in_vehicle | 100 | 11.775014081737 | |
| 69833 | 251224_781550_16430248_0814 | 781550 | (not set) | (not set) | 38.897856714396 | -77.007274126607 | 5.7626 | 2025-12-24 08:32:09 | in_vehicle | 100 | -0.44703925898772 | |
| 69834 | 251224_783758_16447746_0829 | 783758 | (not set) | (not set) | 38.883377900614 | -77.103170686407 | 0.321 | 2025-12-24 08:34:13 | on_bicycle | 100 | -0.44703925898772 | |
| 69835 | 251224_783758_16447746_0829 | 783758 | (not set) | (not set) | 38.882838094008 | -77.10330224983 | 0.3746 | 2025-12-24 08:36:19 | on_foot | 100 | -0.44703925898772 | |
| 69836 | 251224_785147_16514010_0742 | 785147 | (not set) | (not set) | 39.059777866667 | -77.457985283333 | 46.9881 | 2025-12-24 08:38:10 | still | 33 | 11.935948214972 | |
| 69837 | 251224_781550_16430248_0814 | 781550 | (not set) | (not set) | 38.897748237047 | -77.027911796673 | 6.868 | 2025-12-24 08:40:10 | on_foot | 100 | 1.309825028834 | |
| 69838 | 251224_781550_16430248_0814 | 781550 | (not set) | (not set) | 38.89684860053 | -77.027976123991 | 6.9595 | 2025-12-24 08:42:09 | on_foot | 100 | 0.58115103668404 | |
| 69839 | 251224_781550_16430248_0814 | 781550 | (not set) | (not set) | 38.89684860053 | -77.027976123991 | 6.9595 | 2025-12-24 08:42:09 | on_foot | 100 | 0.58115103668404 | |
| 69840 | 251224_783758_16447746_0829 | 783758 | (not set) | (not set) | 38.895435476469 | -77.058179268887 | 0.8926 | 2025-12-24 08:43:29 | in_vehicle | 100 | -0.44703925898772 |